createdAt,value
2023-01-29T03:54:57.914Z,45.00
2023-01-29T03:57:35.730Z,40.70
2023-01-29T04:00:22.807Z,45.10
2023-01-29T04:03:18.112Z,40.00
2023-01-29T04:05:51.795Z,33.70
2023-01-29T04:08:29.064Z,30.50
2023-01-29T04:11:00.277Z,32.70
2023-01-29T04:13:30.118Z,32.10
2023-01-29T04:16:01.849Z,29.70
2023-01-29T04:18:55.973Z,31.40
2023-01-29T04:21:32.011Z,29.40
2023-01-29T04:24:00.619Z,30.50
2023-01-29T04:26:47.514Z,27.80
2023-01-29T04:29:22.287Z,26.50
2023-01-29T04:32:18.966Z,32.10
2023-01-29T04:34:47.507Z,30.30
2023-01-29T04:37:42.511Z,29.90
2023-01-29T04:40:15.391Z,30.80
2023-01-29T04:42:54.904Z,35.70
2023-01-29T04:45:26.997Z,34.20
2023-01-29T04:48:16.020Z,31.30
2023-01-29T04:50:55.244Z,31.60
2023-01-29T04:53:54.611Z,31.40
2023-01-29T04:56:53.778Z,34.60
2023-01-29T04:59:30.834Z,38.40
2023-01-29T05:02:00.312Z,35.10
2023-01-29T05:04:29.993Z,36.10
2023-01-29T05:07:01.609Z,37.10
2023-01-29T05:09:29.937Z,34.30
2023-01-29T05:11:58.101Z,36.70
2023-01-29T05:14:26.374Z,37.00
2023-01-29T05:16:54.519Z,34.50
2023-01-29T05:19:22.642Z,35.20
2023-01-29T05:21:51.027Z,31.20
2023-01-29T05:24:23.933Z,30.40
2023-01-29T05:27:12.606Z,27.70
2023-01-29T05:29:43.806Z,28.50
2023-01-29T05:32:11.928Z,27.20
2023-01-29T05:34:43.722Z,30.30
2023-01-29T05:37:12.578Z,29.40
2023-01-29T05:39:40.722Z,32.20
2023-01-29T05:42:08.852Z,26.40
2023-01-29T05:44:37.098Z,28.40
2023-01-29T05:47:05.313Z,26.30
2023-01-29T05:49:33.399Z,29.20
2023-01-29T05:52:01.868Z,27.40
2023-01-29T05:54:30.369Z,33.60
2023-01-29T05:56:58.485Z,27.50
2023-01-29T05:59:26.761Z,27.40
2023-01-29T06:01:54.855Z,28.50
2023-01-29T06:04:23.163Z,28.70
2023-01-29T06:06:52.221Z,28.90
2023-01-29T06:09:20.304Z,33.60
2023-01-29T06:11:48.486Z,33.10
2023-01-29T06:14:16.882Z,33.00
2023-01-29T06:16:45.150Z,29.80
2023-01-29T06:19:13.315Z,33.40
2023-01-29T06:21:42.386Z,35.80
2023-01-29T06:24:10.559Z,40.10
2023-01-29T06:26:39.966Z,40.90
2023-01-29T06:29:08.313Z,40.90
2023-01-29T06:31:39.307Z,40.90
2023-01-29T06:34:08.159Z,44.10
2023-01-29T06:36:36.334Z,37.30
2023-01-29T06:39:05.146Z,40.00
2023-01-29T06:41:33.553Z,37.60
2023-01-29T06:44:01.803Z,39.90
2023-01-29T06:46:30.198Z,40.20
2023-01-29T06:49:00.553Z,36.70
2023-01-29T06:51:37.546Z,38.20
2023-01-29T06:54:08.417Z,40.10
2023-01-29T06:56:36.879Z,38.60
2023-01-29T06:59:05.047Z,40.90
2023-01-29T07:01:36.380Z,37.50
2023-01-29T07:04:05.196Z,32.50
2023-01-29T07:06:33.545Z,37.00
2023-01-29T07:09:03.427Z,37.80
2023-01-29T07:11:37.911Z,35.80
2023-01-29T07:14:06.192Z,34.40
2023-01-29T07:16:34.473Z,34.00
2023-01-29T07:19:02.759Z,34.80
2023-01-29T07:21:32.118Z,36.10
2023-01-29T07:24:00.304Z,34.70
2023-01-29T07:26:28.641Z,32.70
2023-01-29T07:28:57.025Z,35.10
2023-01-29T07:31:25.227Z,32.50
2023-01-29T07:33:54.147Z,38.00
2023-01-29T07:36:24.223Z,33.80
2023-01-29T07:38:52.381Z,34.50
2023-01-29T07:41:24.011Z,35.50
2023-01-29T12:10:04.517Z,21.00
2023-01-29T12:12:41.729Z,19.60
2023-01-29T12:15:26.226Z,17.90
2023-01-29T12:18:04.508Z,14.30
2023-01-29T12:20:48.014Z,15.70
2023-01-29T12:23:41.303Z,16.10
2023-01-29T12:26:13.715Z,17.60
2023-01-29T12:29:14.114Z,17.60
2023-01-29T12:31:54.959Z,16.80
2023-01-29T12:34:43.645Z,17.60
2023-01-29T12:37:46.082Z,16.00
2023-01-29T12:40:16.529Z,16.30
2023-01-29T12:42:47.610Z,14.60
2023-01-29T12:45:20.342Z,16.40
2023-01-29T12:48:01.565Z,16.20
2023-01-29T12:50:33.308Z,16.70
2023-01-29T12:53:19.946Z,16.90
2023-01-29T12:56:00.505Z,16.60
2023-01-29T12:58:42.614Z,17.00
2023-01-29T13:01:34.546Z,15.70
2023-01-29T13:04:06.367Z,16.00
2023-01-29T13:06:41.507Z,16.10
2023-01-29T13:09:13.406Z,14.70
2023-01-29T13:12:09.860Z,16.40
2023-01-29T13:14:59.007Z,16.60
2023-01-29T13:17:58.364Z,17.10
2023-01-29T13:20:30.225Z,20.50
2023-01-29T13:23:03.556Z,19.40
2023-01-29T13:25:31.731Z,16.90
2023-01-29T13:28:00.750Z,17.40
2023-01-29T13:30:33.266Z,20.20
2023-01-29T13:33:11.395Z,24.80
2023-01-29T13:36:00.448Z,17.40
2023-01-29T13:38:30.534Z,28.30
2023-01-29T13:41:06.265Z,29.70
2023-01-29T13:43:36.879Z,23.40
2023-01-29T13:46:15.057Z,32.50
2023-01-29T13:48:48.599Z,25.30
2023-01-29T13:51:20.828Z,31.20
2023-01-29T13:53:54.207Z,22.30
2023-01-29T13:56:35.499Z,22.40
2023-01-29T13:59:05.562Z,21.30
2023-01-29T14:01:49.194Z,17.70
2023-01-29T14:04:23.082Z,18.50
2023-01-29T14:07:03.130Z,16.30
2023-01-29T14:10:17.382Z,16.70
2023-01-29T14:13:21.249Z,17.30
2023-01-29T14:15:58.485Z,15.40
2023-01-29T14:18:27.803Z,15.80
2023-01-29T14:21:07.048Z,19.00
2023-01-29T14:23:48.446Z,21.70
2023-01-29T14:26:29.130Z,22.10
2023-01-29T14:29:21.631Z,20.30
2023-01-29T14:32:07.121Z,23.70
2023-01-29T14:34:36.493Z,19.00
2023-01-29T14:37:16.911Z,21.60
2023-01-29T14:39:51.236Z,19.80
2023-01-29T14:42:28.872Z,21.10
2023-01-29T14:45:21.633Z,20.20
2023-01-29T14:47:49.672Z,19.40
2023-01-29T14:50:32.810Z,18.90
2023-01-29T14:53:19.731Z,19.00
2023-01-29T14:55:59.489Z,22.50
2023-01-29T14:58:47.241Z,20.30
2023-01-29T15:01:35.863Z,22.10
2023-01-29T15:04:22.789Z,22.70
2023-01-29T15:07:06.514Z,24.50
2023-01-29T15:09:39.598Z,27.20
2023-01-29T15:12:33.474Z,25.10
2023-01-29T15:15:10.253Z,22.60
2023-01-29T15:17:42.904Z,23.10
2023-01-29T15:20:31.153Z,24.00
2023-01-29T15:23:00.305Z,21.90
2023-01-29T15:25:28.663Z,23.70
2023-01-29T15:27:56.972Z,25.10
2023-01-29T15:30:33.390Z,21.90
2023-01-29T15:33:02.648Z,27.10
2023-01-29T15:35:39.538Z,24.50
2023-01-29T15:38:15.078Z,21.80
2023-01-29T15:43:28.665Z,19.20
2023-01-29T15:45:59.964Z,19.40
2023-01-29T19:44:20.201Z,21.60
2023-01-29T19:46:48.583Z,20.40
2023-01-29T19:49:16.780Z,19.60
2023-01-29T19:51:46.162Z,20.40
2023-01-29T19:54:14.328Z,17.80
2023-01-29T19:56:42.435Z,18.30
2023-01-29T19:59:11.960Z,17.20
2023-01-29T20:01:40.089Z,16.90
2023-01-29T20:04:08.218Z,16.30
2023-01-29T20:06:36.673Z,14.90
2023-01-29T20:09:04.972Z,14.10
2023-01-29T20:11:34.013Z,12.10
2023-01-29T20:14:03.681Z,14.00
2023-01-29T20:16:32.046Z,13.00
2023-01-29T20:19:14.127Z,13.60
2023-01-29T20:21:46.454Z,14.10
2023-01-29T20:24:14.780Z,13.10
2023-01-29T20:26:44.152Z,12.80
2023-01-29T20:29:13.365Z,15.90
2023-01-29T20:31:41.598Z,11.30
2023-01-29T20:34:10.065Z,14.00
2023-01-29T20:36:38.807Z,10.60
2023-01-29T20:39:06.879Z,11.70
2023-01-29T20:41:36.737Z,13.40
2023-01-29T20:44:05.259Z,16.00
2023-01-29T20:46:35.526Z,14.10
2023-01-29T20:49:06.843Z,14.70
2023-01-29T20:51:36.362Z,12.60
2023-01-29T20:54:04.522Z,13.60
2023-01-29T20:56:37.082Z,11.30
2023-01-29T20:59:09.835Z,13.30
2023-01-29T21:01:37.869Z,10.10
2023-01-29T21:04:05.916Z,12.80
2023-01-29T21:06:34.173Z,11.80
2023-01-29T21:09:04.081Z,11.70
2023-01-29T21:11:33.732Z,11.40
2023-01-29T21:14:02.071Z,12.70
2023-01-29T21:16:30.507Z,11.90
2023-01-29T21:18:58.936Z,11.60
2023-01-29T21:21:27.329Z,12.10
2023-01-29T21:23:55.687Z,13.20
2023-01-29T21:26:24.139Z,10.40
2023-01-29T21:28:52.780Z,13.30
2023-01-29T21:31:22.307Z,10.60
2023-01-29T21:33:50.563Z,10.00
2023-01-29T21:36:18.942Z,10.30
2023-01-29T21:38:47.320Z,10.10
2023-01-29T21:41:15.477Z,11.90
2023-01-29T21:43:44.827Z,10.00
2023-01-29T21:46:13.400Z,13.80
2023-01-29T21:48:42.477Z,13.30
2023-01-29T21:51:10.813Z,11.60
2023-01-29T21:53:39.041Z,12.00
2023-01-29T21:56:07.712Z,11.80
2023-01-29T21:58:35.940Z,11.00
2023-01-29T22:01:38.142Z,11.60
2023-01-29T22:04:11.580Z,10.80
2023-01-29T22:06:40.289Z,10.80
2023-01-29T22:09:10.152Z,12.70
2023-01-29T22:11:41.419Z,11.80
2023-01-29T22:14:10.966Z,11.10
2023-01-29T22:16:39.985Z,9.20
2023-01-29T22:19:08.230Z,12.60
2023-01-29T22:21:36.872Z,11.50
2023-01-29T22:24:05.457Z,9.70
2023-01-29T22:26:33.962Z,12.10
2023-01-29T22:29:02.356Z,11.90
2023-01-29T22:31:30.730Z,15.00
2023-01-29T22:33:59.004Z,12.80
2023-01-29T22:36:27.048Z,11.70
2023-01-29T22:38:55.147Z,11.80
2023-01-29T22:41:23.569Z,10.90
2023-01-29T22:43:51.908Z,11.10
2023-01-29T22:46:20.024Z,11.40
2023-01-29T22:48:48.228Z,13.80
2023-01-29T22:51:16.333Z,13.90
2023-01-29T22:53:55.102Z,12.90
2023-01-29T22:56:25.760Z,14.70
2023-01-29T22:58:54.992Z,12.90
2023-01-29T23:01:28.465Z,10.90
2023-01-29T23:03:57.442Z,9.60
2023-01-29T23:06:25.642Z,11.30
2023-01-29T23:08:53.678Z,22.00
2023-01-29T23:11:23.554Z,18.10
2023-01-29T23:13:54.485Z,14.80
2023-01-29T23:16:26.836Z,9.50
2023-01-29T23:18:56.517Z,8.50
2023-01-29T23:21:25.217Z,9.00
2023-01-29T23:23:58.296Z,18.20
2023-01-29T23:27:02.118Z,13.50
2023-01-29T23:29:30.232Z,11.70
2023-01-29T23:31:58.530Z,10.30
2023-01-29T23:34:26.633Z,9.10
2023-01-29T23:36:54.819Z,8.50
2023-01-29T23:39:22.882Z,9.70
2023-01-29T23:41:51.125Z,8.40
